Time;durP1;ratioP1;P1;durP2;ratioP2;P2;SDS_P1;SDS_P2;PMS_P1;PMS_P2;Temp;Humidity;BMP_temperature;BMP_pressure;BME280_temperature;BME280_humidity;BME280_pressure;Samples;Min_cycle;Max_cycle;Signal;HPM_P1;HPM_P2
2023/04/27 00:00:44;;;;;;;;;0.00;0.00;;;;;;;;6238678;22;49594;-71
2023/04/27 00:03:09;;;;;;;;;0.00;0.00;;;;;;;;6266347;22;49956;-71
2023/04/27 00:05:35;;;;;;;;;0.00;0.00;;;;;;;;6265750;22;50475;-70
2023/04/27 00:08:01;;;;;;;;;0.00;0.00;;;;;;;;6266055;22;50081;-71
2023/04/27 00:10:26;;;;;;;;;0.00;0.00;;;;;;;;6266153;22;50039;-70
2023/04/27 00:12:51;;;;;;;;;0.00;0.00;;;;;;;;6266381;22;50323;-70
2023/04/27 00:15:16;;;;;;;;;0.00;0.00;;;;;;;;6238349;22;51116;-70
2023/04/27 00:17:42;;;;;;;;;0.00;0.00;;;;;;;;6237951;22;49633;-70
2023/04/27 00:20:10;;;;;;;;;0.00;0.00;;;;;;;;6266113;22;50056;-70
2023/04/27 00:22:36;;;;;;;;;0.00;0.00;;;;;;;;6266171;22;49629;-70
2023/04/27 00:25:01;;;;;;;;;0.00;0.00;;;;;;;;6265058;22;51442;-70
2023/04/27 00:27:27;;;;;;;;;0.00;0.00;;;;;;;;6266246;22;49965;-70
2023/04/27 00:29:52;;;;;;;;;0.00;0.00;;;;;;;;6238139;22;49709;-71
2023/04/27 00:32:17;;;;;;;;;0.00;0.00;;;;;;;;6266075;22;49824;-70
2023/04/27 00:34:42;;;;;;;;;0.00;0.00;;;;;;;;6238092;22;52260;-70
2023/04/27 00:37:07;;;;;;;;;0.00;0.00;;;;;;;;6266258;22;49660;-70
2023/04/27 00:39:33;;;;;;;;;0.00;0.00;;;;;;;;6265983;22;49595;-70
2023/04/27 00:41:58;;;;;;;;;0.00;0.00;;;;;;;;6266562;22;49553;-70
2023/04/27 00:44:24;;;;;;;;;0.00;0.00;;;;;;;;6265997;22;50382;-69
2023/04/27 00:46:50;;;;;;;;;0.00;0.00;;;;;;;;6237974;22;49611;-70
2023/04/27 00:49:15;;;;;;;;;0.00;0.00;;;;;;;;6265876;22;49843;-70
2023/04/27 00:51:40;;;;;;;;;0.00;0.00;;;;;;;;6266033;22;49944;-70
2023/04/27 00:54:06;;;;;;;;;0.00;0.00;;;;;;;;6265643;22;51665;-70
2023/04/27 00:56:31;;;;;;;;;0.00;0.00;;;;;;;;6265715;22;49666;-70
2023/04/27 00:58:56;;;;;;;;;0.00;0.00;;;;;;;;6265844;22;49521;-70
2023/04/27 01:01:22;;;;;;;;;0.00;0.00;;;;;;;;6265739;22;50231;-70
2023/04/27 01:03:47;;;;;;;;;0.00;0.00;;;;;;;;6265477;22;51160;-70
2023/04/27 01:06:12;;;;;;;;;0.00;0.00;;;;;;;;6238253;22;49745;-69
2023/04/27 01:08:38;;;;;;;;;0.00;0.00;;;;;;;;6266167;22;49654;-70
2023/04/27 01:11:03;;;;;;;;;0.00;0.00;;;;;;;;6266178;22;49782;-69
2023/04/27 01:13:28;;;;;;;;;0.00;0.00;;;;;;;;6265958;22;49817;-71
2023/04/27 01:15:53;;;;;;;;;0.00;0.00;;;;;;;;6265635;22;49994;-70
2023/04/27 01:18:18;;;;;;;;;0.00;0.00;;;;;;;;6265598;22;49945;-70
2023/04/27 01:20:43;;;;;;;;;0.00;0.00;;;;;;;;6265732;22;49629;-69
2023/04/27 01:23:12;;;;;;;;;0.00;0.00;;;;;;;;6265390;22;50330;-70
2023/04/27 01:25:37;;;;;;;;;0.00;0.00;;;;;;;;6265745;22;49602;-70
2023/04/27 01:28:02;;;;;;;;;9.00;9.00;;;;;;;;6265651;22;49641;-70
2023/04/27 01:30:28;;;;;;;;;0.00;0.00;;;;;;;;6265032;22;49929;-69
2023/04/27 01:32:54;;;;;;;;;0.00;0.00;;;;;;;;6264895;22;50557;-69
2023/04/27 01:35:19;;;;;;;;;0.00;0.00;;;;;;;;6265510;22;49678;-69
2023/04/27 01:37:45;;;;;;;;;0.00;0.00;;;;;;;;6238092;22;49705;-69
2023/04/27 01:40:10;;;;;;;;;0.00;0.00;;;;;;;;6266084;22;49642;-69
2023/04/27 01:42:35;;;;;;;;;0.00;0.00;;;;;;;;6265502;22;49630;-69
2023/04/27 01:45:00;;;;;;;;;0.00;0.00;;;;;;;;6265550;22;49764;-70
2023/04/27 01:47:26;;;;;;;;;0.00;0.00;;;;;;;;6265465;22;49673;-70
2023/04/27 01:49:51;;;;;;;;;0.00;0.00;;;;;;;;6266077;22;49983;-70
2023/04/27 01:52:16;;;;;;;;;0.75;0.75;;;;;;;;6237905;22;52449;-70
2023/04/27 01:54:42;;;;;;;;;0.00;0.00;;;;;;;;6238098;22;50047;-70
2023/04/27 01:57:07;;;;;;;;;0.00;0.00;;;;;;;;6265816;22;49734;-70
2023/04/27 01:59:32;;;;;;;;;0.00;0.00;;;;;;;;6265651;22;49813;-70
2023/04/27 02:01:57;;;;;;;;;0.00;0.00;;;;;;;;6265479;22;50838;-70
2023/04/27 02:04:22;;;;;;;;;0.00;0.00;;;;;;;;6265328;22;50030;-70
2023/04/27 02:06:48;;;;;;;;;0.00;0.00;;;;;;;;6265735;22;49796;-70
2023/04/27 02:09:16;;;;;;;;;0.00;0.00;;;;;;;;6265919;22;49795;-70
2023/04/27 02:11:41;;;;;;;;;0.00;0.00;;;;;;;;6265352;22;50400;-70
2023/04/27 02:14:07;;;;;;;;;0.00;0.00;;;;;;;;6265524;22;49642;-69
2023/04/27 02:16:32;;;;;;;;;0.00;0.00;;;;;;;;6265778;22;49624;-69
2023/04/27 02:18:57;;;;;;;;;0.00;0.00;;;;;;;;6266168;22;49657;-70
2023/04/27 02:21:23;;;;;;;;;0.00;0.00;;;;;;;;6264895;22;50641;-69
2023/04/27 02:23:48;;;;;;;;;0.00;0.00;;;;;;;;6265516;22;49472;-69
2023/04/27 02:26:18;;;;;;;;;0.00;0.00;;;;;;;;6265499;22;49621;-69
2023/04/27 02:28:43;;;;;;;;;0.00;0.00;;;;;;;;6265051;22;49990;-70
2023/04/27 02:31:08;;;;;;;;;0.00;0.00;;;;;;;;6265519;22;49753;-69
2023/04/27 02:33:33;;;;;;;;;0.00;0.00;;;;;;;;6264642;22;49880;-69
2023/04/27 02:35:59;;;;;;;;;0.00;0.00;;;;;;;;6265280;22;49573;-69
2023/04/27 02:38:24;;;;;;;;;0.00;0.00;;;;;;;;6265483;22;49913;-70
2023/04/27 02:40:55;;;;;;;;;0.00;0.00;;;;;;;;6264953;22;49811;-70
2023/04/27 02:43:21;;;;;;;;;0.00;0.00;;;;;;;;6265118;22;49628;-69
2023/04/27 02:45:46;;;;;;;;;0.00;0.00;;;;;;;;6265066;22;49566;-70
2023/04/27 02:48:11;;;;;;;;;0.00;0.00;;;;;;;;6266137;22;50274;-70
2023/04/27 02:50:41;;;;;;;;;0.00;0.00;;;;;;;;6266402;22;50859;-69
2023/04/27 02:53:06;;;;;;;;;0.00;0.00;;;;;;;;6266455;22;50008;-70
2023/04/27 02:55:31;;;;;;;;;0.00;0.00;;;;;;;;6266013;22;49719;-70
2023/04/27 02:57:56;;;;;;;;;0.00;0.00;;;;;;;;6238914;22;49708;-70
2023/04/27 03:00:21;;;;;;;;;0.00;0.00;;;;;;;;6266604;22;49836;-70
2023/04/27 03:02:47;;;;;;;;;0.00;0.00;;;;;;;;6266068;22;49618;-70
2023/04/27 03:05:12;;;;;;;;;0.00;0.00;;;;;;;;6266414;22;49746;-70
2023/04/27 03:07:37;;;;;;;;;0.00;0.00;;;;;;;;6266550;22;50058;-70
2023/04/27 03:10:02;;;;;;;;;0.00;0.00;;;;;;;;6266348;22;49739;-70
2023/04/27 03:12:27;;;;;;;;;0.00;0.00;;;;;;;;6265851;22;49629;-69
2023/04/27 03:14:53;;;;;;;;;0.00;0.00;;;;;;;;6266871;22;50175;-70
2023/04/27 03:17:18;;;;;;;;;0.00;0.00;;;;;;;;6266805;22;49852;-70
2023/04/27 03:19:45;;;;;;;;;0.00;0.00;;;;;;;;6265833;22;51416;-70
2023/04/27 03:22:11;;;;;;;;;0.00;0.00;;;;;;;;6266526;22;49688;-69
2023/04/27 03:24:36;;;;;;;;;0.00;0.00;;;;;;;;6266213;22;49609;-70
2023/04/27 03:27:01;;;;;;;;;0.00;0.00;;;;;;;;6266458;22;49526;-70
2023/04/27 03:29:26;;;;;;;;;2.33;2.33;;;;;;;;6266115;22;49748;-70
2023/04/27 03:31:51;;;;;;;;;0.00;0.00;;;;;;;;6266424;22;49872;-69
2023/04/27 03:34:16;;;;;;;;;0.00;0.00;;;;;;;;6266071;22;49557;-70
2023/04/27 03:36:42;;;;;;;;;0.00;0.00;;;;;;;;6266197;22;49887;-69
2023/04/27 03:39:07;;;;;;;;;0.00;0.00;;;;;;;;6265857;22;50768;-69
2023/04/27 03:41:32;;;;;;;;;0.00;0.00;;;;;;;;6265862;22;50031;-69
2023/04/27 03:43:57;;;;;;;;;10.00;10.00;;;;;;;;6266486;22;49566;-70
2023/04/27 03:46:22;;;;;;;;;0.00;0.00;;;;;;;;6266496;22;50401;-69
2023/04/27 03:48:48;;;;;;;;;0.00;0.00;;;;;;;;6265806;22;51415;-69
2023/04/27 03:51:13;;;;;;;;;0.00;0.00;;;;;;;;6266088;22;50425;-69
2023/04/27 03:53:39;;;;;;;;;0.50;0.50;;;;;;;;6265418;22;49716;-69
2023/04/27 03:56:04;;;;;;;;;0.00;0.00;;;;;;;;6265965;22;49928;-70
2023/04/27 03:58:29;;;;;;;;;3.50;3.50;;;;;;;;6265627;22;50299;-70
2023/04/27 04:00:56;;;;;;;;;0.00;0.00;;;;;;;;6266046;22;50031;-69
2023/04/27 04:03:21;;;;;;;;;0.00;0.00;;;;;;;;6266172;22;49989;-70
2023/04/27 04:05:46;;;;;;;;;0.00;0.00;;;;;;;;6266338;22;50028;-69
2023/04/27 04:08:12;;;;;;;;;0.00;0.00;;;;;;;;6266142;22;49781;-70
2023/04/27 04:10:38;;;;;;;;;0.00;0.00;;;;;;;;6238403;22;49876;-70
2023/04/27 04:13:03;;;;;;;;;0.00;0.00;;;;;;;;6266359;22;49680;-69
2023/04/27 04:15:28;;;;;;;;;43.00;43.00;;;;;;;;6266306;22;49634;-70
2023/04/27 04:17:53;;;;;;;;;0.00;0.00;;;;;;;;6265930;22;50892;-70
2023/04/27 04:20:18;;;;;;;;;6.00;6.00;;;;;;;;6265755;22;49668;-69
2023/04/27 04:22:44;;;;;;;;;0.00;0.00;;;;;;;;6265778;22;49560;-69
2023/04/27 04:25:09;;;;;;;;;0.00;0.00;;;;;;;;6266199;22;49642;-70
2023/04/27 04:27:34;;;;;;;;;0.00;0.00;;;;;;;;6265635;22;51333;-70
2023/04/27 04:30:00;;;;;;;;;0.00;0.00;;;;;;;;6265653;22;49689;-70
2023/04/27 04:32:28;;;;;;;;;0.00;0.00;;;;;;;;6265710;22;49631;-69
2023/04/27 04:34:53;;;;;;;;;0.00;0.00;;;;;;;;6265863;22;50018;-70
2023/04/27 04:37:19;;;;;;;;;0.00;0.00;;;;;;;;6265483;22;50375;-69
2023/04/27 04:39:44;;;;;;;;;0.00;0.00;;;;;;;;6266185;22;50015;-69
2023/04/27 04:42:09;;;;;;;;;0.00;0.00;;;;;;;;6265496;22;49767;-69
2023/04/27 04:44:34;;;;;;;;;0.00;0.00;;;;;;;;6265848;22;50077;-70
2023/04/27 04:46:59;;;;;;;;;0.00;0.00;;;;;;;;6265629;22;50545;-70
2023/04/27 04:49:25;;;;;;;;;0.00;0.00;;;;;;;;6265671;22;49649;-70
2023/04/27 04:51:50;;;;;;;;;0.00;0.00;;;;;;;;6265812;22;49737;-70
2023/04/27 04:54:15;;;;;;;;;0.00;0.00;;;;;;;;6265714;22;49959;-70
2023/04/27 04:56:40;;;;;;;;;0.00;0.00;;;;;;;;6265556;22;49819;-70
2023/04/27 04:59:05;;;;;;;;;0.00;0.00;;;;;;;;6266068;22;49838;-70
2023/04/27 05:01:31;;;;;;;;;0.00;0.00;;;;;;;;6265524;22;49799;-70
2023/04/27 05:03:56;;;;;;;;;0.00;0.00;;;;;;;;6265966;22;50355;-70
2023/04/27 05:06:21;;;;;;;;;0.00;0.00;;;;;;;;6265395;22;50542;-70
2023/04/27 05:08:46;;;;;;;;;0.00;0.00;;;;;;;;6266067;22;50101;-70
2023/04/27 05:11:12;;;;;;;;;0.00;0.00;;;;;;;;6264812;22;49793;-70
2023/04/27 05:13:37;;;;;;;;;0.00;0.00;;;;;;;;6265876;22;49986;-70
2023/04/27 05:16:06;;;;;;;;;0.00;0.00;;;;;;;;6264702;22;49995;-70
2023/04/27 05:18:31;;;;;;;;;0.00;0.00;;;;;;;;6238181;22;49906;-70
2023/04/27 05:20:57;;;;;;;;;0.00;0.00;;;;;;;;6265676;22;49702;-70
2023/04/27 05:23:22;;;;;;;;;0.00;0.00;;;;;;;;6238457;22;49552;-69
2023/04/27 05:25:47;;;;;;;;;0.00;0.00;;;;;;;;6265963;22;50100;-69
2023/04/27 05:28:12;;;;;;;;;0.00;0.00;;;;;;;;6265579;22;49516;-69
2023/04/27 05:30:37;;;;;;;;;0.00;0.00;;;;;;;;6237939;22;49706;-69
2023/04/27 05:33:03;;;;;;;;;0.00;0.00;;;;;;;;6265555;22;49934;-69
2023/04/27 05:35:28;;;;;;;;;0.00;0.00;;;;;;;;6237459;22;51577;-70
2023/04/27 05:37:54;;;;;;;;;0.00;0.00;;;;;;;;6265824;22;49737;-69
2023/04/27 05:40:19;;;;;;;;;0.00;0.00;;;;;;;;6266007;22;49704;-70
2023/04/27 05:42:47;;;;;;;;;0.00;0.00;;;;;;;;6265786;22;49974;-68
2023/04/27 05:45:13;;;;;;;;;0.00;0.00;;;;;;;;6254902;22;50570;-70
2023/04/27 05:47:38;;;;;;;;;0.00;0.00;;;;;;;;6264956;22;49936;-70
2023/04/27 05:50:04;;;;;;;;;0.00;0.00;;;;;;;;6265268;22;49495;-67
2023/04/27 05:52:30;;;;;;;;;0.00;0.00;;;;;;;;6265717;22;50031;-71
2023/04/27 05:54:55;;;;;;;;;0.00;0.00;;;;;;;;6265755;22;49957;-71
2023/04/27 05:57:20;;;;;;;;;0.00;0.00;;;;;;;;6265443;22;49650;-70
2023/04/27 05:59:46;;;;;;;;;0.00;0.00;;;;;;;;6265909;22;49867;-70
2023/04/27 06:02:11;;;;;;;;;4.00;4.00;;;;;;;;6266231;22;49846;-70
2023/04/27 06:04:36;;;;;;;;;0.00;0.00;;;;;;;;6265208;22;50814;-70
2023/04/27 06:07:06;;;;;;;;;0.00;0.00;;;;;;;;6265207;22;49645;-74
2023/04/27 06:09:31;;;;;;;;;0.00;0.00;;;;;;;;6265167;22;49614;-71
2023/04/27 06:11:59;;;;;;;;;0.00;0.00;;;;;;;;6265485;22;49887;-70
2023/04/27 06:14:24;;;;;;;;;0.00;0.00;;;;;;;;6264859;22;51455;-70
2023/04/27 06:16:49;;;;;;;;;0.00;0.00;;;;;;;;6264972;22;50050;-70
2023/04/27 06:19:15;;;;;;;;;0.00;0.00;;;;;;;;6265250;22;49828;-70
2023/04/27 06:21:40;;;;;;;;;0.00;0.00;;;;;;;;6265532;22;49540;-69
2023/04/27 06:24:05;;;;;;;;;0.00;0.00;;;;;;;;6265035;22;50341;-73
2023/04/27 06:26:31;;;;;;;;;0.00;0.00;;;;;;;;6265051;22;49692;-70
2023/04/27 06:28:56;;;;;;;;;0.00;0.00;;;;;;;;6265364;22;49858;-71
2023/04/27 06:31:21;;;;;;;;;2.67;2.67;;;;;;;;6265617;22;49657;-72
2023/04/27 06:33:46;;;;;;;;;3.00;3.00;;;;;;;;6264376;22;50708;-72
2023/04/27 06:36:11;;;;;;;;;0.00;0.00;;;;;;;;6264981;22;50173;-70
2023/04/27 06:38:36;;;;;;;;;0.00;0.00;;;;;;;;6265349;22;49749;-69
2023/04/27 06:41:02;;;;;;;;;0.00;0.00;;;;;;;;6265460;22;49897;-71
2023/04/27 06:43:27;;;;;;;;;0.00;0.00;;;;;;;;6264912;22;50491;-70
2023/04/27 06:45:52;;;;;;;;;0.00;0.00;;;;;;;;6265071;22;49504;-72
2023/04/27 06:48:17;;;;;;;;;0.00;0.00;;;;;;;;6237299;22;49946;-73
2023/04/27 06:50:43;;;;;;;;;0.00;0.00;;;;;;;;6265615;22;49873;-69
2023/04/27 06:53:08;;;;;;;;;0.00;0.00;;;;;;;;6264954;22;50188;-71
2023/04/27 06:55:34;;;;;;;;;5.25;5.25;;;;;;;;6264594;22;49606;-72
2023/04/27 06:57:59;;;;;;;;;2.50;1.00;;;;;;;;6264901;22;49819;-73
2023/04/27 07:00:25;;;;;;;;;0.00;0.00;;;;;;;;6265391;22;49718;-71
2023/04/27 07:02:51;;;;;;;;;0.00;0.00;;;;;;;;6264344;22;51565;-72
2023/04/27 07:05:16;;;;;;;;;0.00;0.00;;;;;;;;6237229;22;49698;-72
2023/04/27 07:07:41;;;;;;;;;0.00;0.00;;;;;;;;6237705;22;49852;-70
2023/04/27 07:10:07;;;;;;;;;0.33;0.33;;;;;;;;6237619;22;49590;-71
2023/04/27 07:12:32;;;;;;;;;0.00;0.00;;;;;;;;6264765;22;50005;-71
2023/04/27 07:14:57;;;;;;;;;0.00;0.00;;;;;;;;6264886;22;49922;-71
2023/04/27 07:17:22;;;;;;;;;0.00;0.00;;;;;;;;6265078;22;49963;-70
2023/04/27 07:19:47;;;;;;;;;0.00;0.00;;;;;;;;6264526;22;49608;-71
2023/04/27 07:22:14;;;;;;;;;0.00;0.00;;;;;;;;6264780;22;50482;-70
2023/04/27 07:24:40;;;;;;;;;3.00;3.00;;;;;;;;6264375;22;49602;-70
2023/04/27 07:27:06;;;;;;;;;0.00;0.00;;;;;;;;6264554;22;49934;-70
2023/04/27 07:29:31;;;;;;;;;0.00;0.00;;;;;;;;6265111;22;49639;-71
2023/04/27 07:31:56;;;;;;;;;0.50;0.00;;;;;;;;6264296;22;49749;-71
2023/04/27 07:34:22;;;;;;;;;0.00;0.00;;;;;;;;6265577;22;49654;-71
2023/04/27 07:36:47;;;;;;;;;0.00;0.00;;;;;;;;6265401;22;49693;-70
2023/04/27 07:39:12;;;;;;;;;0.00;0.00;;;;;;;;6266797;22;49979;-70
2023/04/27 07:41:38;;;;;;;;;0.00;0.00;;;;;;;;6265880;22;51364;-71
2023/04/27 07:44:03;;;;;;;;;0.00;0.00;;;;;;;;6266520;22;49578;-71
2023/04/27 07:46:30;;;;;;;;;0.75;0.75;;;;;;;;6238030;22;50012;-71
2023/04/27 07:48:58;;;;;;;;;0.00;0.00;;;;;;;;6265999;22;49910;-69
2023/04/27 07:51:24;;;;;;;;;0.00;0.00;;;;;;;;6264987;22;50599;-70
2023/04/27 07:53:49;;;;;;;;;0.00;0.00;;;;;;;;6265932;22;49559;-69
2023/04/27 07:56:14;;;;;;;;;0.00;0.00;;;;;;;;6266210;22;49911;-70
2023/04/27 07:58:39;;;;;;;;;1.00;1.00;;;;;;;;6265875;22;49613;-69
2023/04/27 08:01:04;;;;;;;;;0.00;0.00;;;;;;;;6237724;22;49737;-68
2023/04/27 08:03:30;;;;;;;;;0.00;0.00;;;;;;;;6265715;22;49575;-71
2023/04/27 08:05:55;;;;;;;;;0.00;0.00;;;;;;;;6266316;22;50113;-65
2023/04/27 08:08:21;;;;;;;;;0.00;0.00;;;;;;;;6265774;22;50418;-68
2023/04/27 08:10:46;;;;;;;;;0.00;0.00;;;;;;;;6237879;22;51469;-68
2023/04/27 08:13:11;;;;;;;;;2.00;1.33;;;;;;;;6265966;22;49593;-69
2023/04/27 08:15:37;;;;;;;;;0.00;0.00;;;;;;;;6265319;22;49824;-69
2023/04/27 08:18:02;;;;;;;;;0.00;0.00;;;;;;;;6265936;22;49930;-68
2023/04/27 08:20:27;;;;;;;;;1.00;0.00;;;;;;;;6238473;22;50069;-66
2023/04/27 08:22:52;;;;;;;;;0.00;0.00;;;;;;;;6265592;22;49818;-68
2023/04/27 08:25:18;;;;;;;;;1.00;0.00;;;;;;;;6265181;22;49713;-67
2023/04/27 08:27:43;;;;;;;;;0.00;0.00;;;;;;;;6258824;22;50021;-67
2023/04/27 08:30:09;;;;;;;;;0.00;0.00;;;;;;;;6265391;22;50509;-67
2023/04/27 08:32:34;;;;;;;;;0.00;0.00;;;;;;;;6264611;22;49746;-66
2023/04/27 08:34:59;;;;;;;;;0.00;0.00;;;;;;;;6238340;22;49765;-66
2023/04/27 08:37:24;;;;;;;;;0.00;0.00;;;;;;;;6266181;22;49778;-66
2023/04/27 08:39:49;;;;;;;;;9.67;9.67;;;;;;;;6265002;22;50759;-67
2023/04/27 08:42:15;;;;;;;;;0.00;0.00;;;;;;;;6265771;22;49612;-67
2023/04/27 08:44:41;;;;;;;;;0.00;0.00;;;;;;;;6264221;22;50038;-66
2023/04/27 08:47:07;;;;;;;;;0.75;0.00;;;;;;;;6265505;22;49708;-66
2023/04/27 08:49:33;;;;;;;;;0.00;0.00;;;;;;;;6263878;22;50985;-67
2023/04/27 08:51:58;;;;;;;;;1.00;1.00;;;;;;;;6264645;22;49855;-67
2023/04/27 08:54:23;;;;;;;;;0.00;0.00;;;;;;;;6264735;22;49630;-67
2023/04/27 08:56:48;;;;;;;;;0.00;0.00;;;;;;;;6265507;22;49855;-67
2023/04/27 08:59:14;;;;;;;;;4.67;0.33;;;;;;;;6265331;22;51208;-68
2023/04/27 09:01:44;;;;;;;;;3.50;3.50;;;;;;;;6264430;22;49879;-67
2023/04/27 09:04:10;;;;;;;;;0.00;0.00;;;;;;;;6265256;22;50064;-68
2023/04/27 09:06:36;;;;;;;;;0.00;0.00;;;;;;;;6265295;22;49933;-68
2023/04/27 09:09:02;;;;;;;;;0.00;0.00;;;;;;;;6265177;22;50527;-67
2023/04/27 09:11:34;;;;;;;;;7.00;5.00;;;;;;;;6264140;22;49768;-67
2023/04/27 09:14:01;;;;;;;;;0.00;0.00;;;;;;;;6264312;22;49776;-68
2023/04/27 09:16:28;;;;;;;;;0.00;0.00;;;;;;;;6266075;22;49621;-68
2023/04/27 09:18:53;;;;;;;;;0.25;0.25;;;;;;;;6265686;22;49950;-66
2023/04/27 09:21:23;;;;;;;;;0.50;0.50;;;;;;;;6265770;22;49689;-66
2023/04/27 09:23:48;;;;;;;;;0.00;0.00;;;;;;;;6265934;22;49553;-66
2023/04/27 09:26:18;;;;;;;;;1.00;1.00;;;;;;;;6265363;22;50085;-66
2023/04/27 09:28:46;;;;;;;;;6.00;1.00;;;;;;;;6259353;22;50490;-67
2023/04/27 09:31:11;;;;;;;;;1.00;1.00;;;;;;;;6265344;22;49852;-67
2023/04/27 09:33:36;;;;;;;;;0.00;0.00;;;;;;;;6265344;22;49995;-67
2023/04/27 09:36:05;;;;;;;;;0.00;0.00;;;;;;;;6265529;22;49635;-67
2023/04/27 09:38:30;;;;;;;;;0.00;0.00;;;;;;;;6236546;22;52496;-67
2023/04/27 09:40:56;;;;;;;;;0.00;0.00;;;;;;;;6236997;22;49625;-66
2023/04/27 09:43:22;;;;;;;;;0.00;0.00;;;;;;;;6265341;22;49610;-66
2023/04/27 09:45:48;;;;;;;;;0.00;0.00;;;;;;;;6265874;22;49619;-66
2023/04/27 09:48:14;;;;;;;;;0.00;0.00;;;;;;;;6265120;22;49606;-67
2023/04/27 09:50:40;;;;;;;;;1.00;1.00;;;;;;;;6264850;22;49890;-67
2023/04/27 09:53:09;;;;;;;;;0.00;0.00;;;;;;;;6264557;22;49919;-66
2023/04/27 09:55:58;;;;;;;;;0.00;0.00;;;;;;;;6265032;22;50058;-66
2023/04/27 09:58:31;;;;;;;;;0.00;0.00;;;;;;;;6231229;22;51693;-68
2023/04/27 10:00:57;;;;;;;;;0.00;0.00;;;;;;;;6264350;22;49740;-68
2023/04/27 10:03:31;;;;;;;;;0.00;0.00;;;;;;;;6264179;22;49783;-68
2023/04/27 10:06:15;;;;;;;;;0.00;0.00;;;;;;;;6264658;22;49696;-67
2023/04/27 10:08:40;;;;;;;;;0.25;0.25;;;;;;;;6263793;22;50526;-67
2023/04/27 10:11:14;;;;;;;;;0.00;0.00;;;;;;;;6264273;22;49989;-67
2023/04/27 10:13:49;;;;;;;;;0.00;0.00;;;;;;;;6264311;22;49793;-68
2023/04/27 10:16:15;;;;;;;;;0.00;0.00;;;;;;;;6264993;22;49974;-68
2023/04/27 10:18:49;;;;;;;;;0.00;0.00;;;;;;;;6265100;22;50571;-68
2023/04/27 10:21:15;;;;;;;;;0.00;0.00;;;;;;;;6264492;22;50112;-68
2023/04/27 10:23:47;;;;;;;;;0.00;0.00;;;;;;;;6263504;22;50030;-67
2023/04/27 10:26:23;;;;;;;;;0.00;0.00;;;;;;;;6262655;22;50011;-68
2023/04/27 10:29:03;;;;;;;;;0.00;0.00;;;;;;;;6256526;22;51330;-67
2023/04/27 10:31:29;;;;;;;;;0.00;0.00;;;;;;;;6262634;22;49697;-69
2023/04/27 10:34:07;;;;;;;;;0.00;0.00;;;;;;;;6263156;22;49599;-67
2023/04/27 10:36:36;;;;;;;;;0.00;0.00;;;;;;;;6263459;22;50184;-67
2023/04/27 10:39:02;;;;;;;;;0.00;0.00;;;;;;;;6263186;22;49728;-68
2023/04/27 10:41:33;;;;;;;;;0.00;0.00;;;;;;;;6262318;22;49688;-69
2023/04/27 10:44:12;;;;;;;;;0.00;0.00;;;;;;;;6262964;22;49971;-71
2023/04/27 10:46:48;;;;;;;;;0.00;0.00;;;;;;;;6263859;22;50091;-69
2023/04/27 10:49:14;;;;;;;;;0.00;0.00;;;;;;;;6263286;22;51319;-70
2023/04/27 10:51:40;;;;;;;;;0.00;0.00;;;;;;;;6236262;22;49753;-69
2023/04/27 10:54:05;;;;;;;;;0.00;0.00;;;;;;;;6263969;22;49967;-69
2023/04/27 10:56:31;;;;;;;;;0.00;0.00;;;;;;;;6263768;22;49944;-70
2023/04/27 10:59:00;;;;;;;;;0.00;0.00;;;;;;;;6257565;22;50094;-67
2023/04/27 11:01:26;;;;;;;;;0.00;0.00;;;;;;;;6262782;22;50118;-67
2023/04/27 11:03:55;;;;;;;;;0.00;0.00;;;;;;;;6263651;22;49736;-68
2023/04/27 11:06:21;;;;;;;;;0.00;0.00;;;;;;;;6263697;22;49751;-66
2023/04/27 11:08:46;;;;;;;;;0.00;0.00;;;;;;;;6263714;22;51560;-66
2023/04/27 11:11:16;;;;;;;;;3.00;0.00;;;;;;;;6265146;22;49575;-66
2023/04/27 11:13:42;;;;;;;;;0.00;0.00;;;;;;;;6265885;22;49821;-66
2023/04/27 11:16:07;;;;;;;;;0.00;0.00;;;;;;;;6266164;22;49605;-66
2023/04/27 11:18:35;;;;;;;;;0.00;0.00;;;;;;;;6266192;22;49717;-66
2023/04/27 11:21:14;;;;;;;;;0.00;0.00;;;;;;;;6264134;22;50015;-66
2023/04/27 11:23:40;;;;;;;;;0.00;0.00;;;;;;;;6265333;22;49639;-67
2023/04/27 11:26:20;;;;;;;;;0.50;0.50;;;;;;;;6237943;22;50044;-67
2023/04/27 11:29:08;;;;;;;;;0.00;0.00;;;;;;;;6231449;22;50512;-68
2023/04/27 11:31:42;;;;;;;;;0.00;0.00;;;;;;;;6264972;22;49718;-66
2023/04/27 11:34:07;;;;;;;;;0.00;0.00;;;;;;;;6262094;22;49914;-66
2023/04/27 11:36:32;;;;;;;;;0.00;0.00;;;;;;;;6237396;22;49772;-65
2023/04/27 11:38:58;;;;;;;;;0.00;0.00;;;;;;;;6264232;22;50640;-67
2023/04/27 11:41:32;;;;;;;;;0.00;0.00;;;;;;;;6265003;22;49839;-66
2023/04/27 11:44:02;;;;;;;;;0.00;0.00;;;;;;;;6264540;22;49887;-67
2023/04/27 11:46:28;;;;;;;;;0.00;0.00;;;;;;;;6265347;22;49770;-67
2023/04/27 11:48:59;;;;;;;;;0.00;0.00;;;;;;;;6264487;22;50248;-66
2023/04/27 11:51:25;;;;;;;;;0.00;0.00;;;;;;;;6265700;22;49724;-67
2023/04/27 11:53:51;;;;;;;;;0.00;0.00;;;;;;;;6264778;22;49686;-67
2023/04/27 11:56:16;;;;;;;;;0.00;0.00;;;;;;;;6265136;22;49663;-68
2023/04/27 11:58:43;;;;;;;;;0.00;0.00;;;;;;;;6259833;22;50280;-67
2023/04/27 12:01:09;;;;;;;;;0.00;0.00;;;;;;;;6265287;22;49736;-67
2023/04/27 12:03:35;;;;;;;;;0.00;0.00;;;;;;;;6264980;22;49688;-67
2023/04/27 12:06:00;;;;;;;;;0.00;0.00;;;;;;;;6265064;22;50007;-66
2023/04/27 12:08:25;;;;;;;;;0.00;0.00;;;;;;;;6264178;22;50535;-67
2023/04/27 12:10:51;;;;;;;;;0.00;0.00;;;;;;;;6265009;22;49751;-67
2023/04/27 12:13:16;;;;;;;;;0.00;0.00;;;;;;;;6265505;22;49700;-67
2023/04/27 12:15:41;;;;;;;;;0.00;0.00;;;;;;;;6265231;22;49681;-66
2023/04/27 12:18:07;;;;;;;;;0.00;0.00;;;;;;;;6236889;22;51394;-66
2023/04/27 12:20:32;;;;;;;;;0.00;0.00;;;;;;;;6265269;22;49669;-66
2023/04/27 12:22:58;;;;;;;;;0.00;0.00;;;;;;;;6264476;22;49522;-66
2023/04/27 12:25:23;;;;;;;;;0.00;0.00;;;;;;;;6264611;22;49995;-66
2023/04/27 12:27:49;;;;;;;;;0.00;0.00;;;;;;;;6258486;22;50570;-66
2023/04/27 12:30:14;;;;;;;;;0.00;0.00;;;;;;;;6264027;22;49809;-66
2023/04/27 12:32:40;;;;;;;;;0.00;0.00;;;;;;;;6264131;22;49519;-67
2023/04/27 12:35:06;;;;;;;;;0.00;0.00;;;;;;;;6263932;22;49950;-67
2023/04/27 12:37:31;;;;;;;;;0.00;0.00;;;;;;;;6264244;22;51636;-67
2023/04/27 12:39:56;;;;;;;;;0.00;0.00;;;;;;;;6264619;22;49784;-67
2023/04/27 12:42:23;;;;;;;;;0.00;0.00;;;;;;;;6237595;22;49773;-65
2023/04/27 12:44:48;;;;;;;;;0.00;0.00;;;;;;;;6265561;22;49988;-66
2023/04/27 12:47:13;;;;;;;;;0.00;0.00;;;;;;;;6264661;22;52162;-67
2023/04/27 12:49:39;;;;;;;;;0.00;0.00;;;;;;;;6264892;22;49794;-66
2023/04/27 12:52:04;;;;;;;;;0.00;0.00;;;;;;;;6264672;22;49614;-67
2023/04/27 12:54:29;;;;;;;;;0.00;0.00;;;;;;;;6237906;22;49844;-65
2023/04/27 12:56:55;;;;;;;;;0.00;0.00;;;;;;;;6237178;22;51598;-68
2023/04/27 12:59:20;;;;;;;;;0.00;0.00;;;;;;;;6264471;22;49513;-65
2023/04/27 13:01:45;;;;;;;;;0.00;0.00;;;;;;;;6264062;22;49788;-67
2023/04/27 13:04:16;;;;;;;;;0.00;0.00;;;;;;;;6264880;22;49801;-66
2023/04/27 13:06:41;;;;;;;;;0.00;0.00;;;;;;;;6264834;22;50006;-66
2023/04/27 13:09:06;;;;;;;;;0.00;0.00;;;;;;;;6264577;22;49879;-66
2023/04/27 13:11:31;;;;;;;;;0.00;0.00;;;;;;;;6264506;22;50034;-66
2023/04/27 13:13:57;;;;;;;;;0.00;0.00;;;;;;;;6265028;22;49663;-65
2023/04/27 13:16:24;;;;;;;;;0.00;0.00;;;;;;;;6264364;22;49645;-66
2023/04/27 13:18:51;;;;;;;;;0.00;0.00;;;;;;;;6264733;22;49721;-66
2023/04/27 13:21:16;;;;;;;;;0.00;0.00;;;;;;;;6264255;22;49575;-66
2023/04/27 13:23:41;;;;;;;;;0.00;0.00;;;;;;;;6265317;22;49641;-67
2023/04/27 13:26:06;;;;;;;;;0.00;0.00;;;;;;;;6236866;22;52463;-68
2023/04/27 13:28:32;;;;;;;;;0.00;0.00;;;;;;;;6264868;22;49695;-67
2023/04/27 13:30:57;;;;;;;;;0.00;0.00;;;;;;;;6264276;22;49570;-66
2023/04/27 13:33:22;;;;;;;;;0.00;0.00;;;;;;;;6264553;22;49869;-68
2023/04/27 13:35:47;;;;;;;;;0.00;0.00;;;;;;;;6264575;22;49697;-67
2023/04/27 13:38:13;;;;;;;;;0.00;0.00;;;;;;;;6237093;22;49629;-67
2023/04/27 13:40:38;;;;;;;;;0.00;0.00;;;;;;;;6264976;22;49923;-68
2023/04/27 13:43:03;;;;;;;;;0.00;0.00;;;;;;;;6264500;22;50336;-67
2023/04/27 13:45:28;;;;;;;;;0.00;0.00;;;;;;;;6264871;22;50316;-66
2023/04/27 13:47:53;;;;;;;;;0.00;0.00;;;;;;;;6264619;22;49891;-69
2023/04/27 13:50:18;;;;;;;;;0.00;0.00;;;;;;;;6264155;22;49635;-68
2023/04/27 13:52:44;;;;;;;;;0.00;0.00;;;;;;;;6264663;22;49943;-67
2023/04/27 13:55:09;;;;;;;;;0.00;0.00;;;;;;;;6265212;22;50249;-70
2023/04/27 13:57:35;;;;;;;;;1.75;1.75;;;;;;;;6264699;22;49846;-67
2023/04/27 14:00:00;;;;;;;;;0.00;0.00;;;;;;;;6264868;22;49821;-68
2023/04/27 14:02:26;;;;;;;;;0.00;0.00;;;;;;;;6266064;22;49885;-68
2023/04/27 14:04:51;;;;;;;;;0.00;0.00;;;;;;;;6264785;22;50750;-68
2023/04/27 14:07:17;;;;;;;;;0.00;0.00;;;;;;;;6234701;22;50310;-67
2023/04/27 14:09:43;;;;;;;;;0.00;0.00;;;;;;;;6249218;22;50072;-68
2023/04/27 14:12:08;;;;;;;;;0.00;0.00;;;;;;;;6256334;22;49945;-68
2023/04/27 14:14:36;;;;;;;;;0.00;0.00;;;;;;;;6264262;22;50242;-68
2023/04/27 14:17:02;;;;;;;;;0.00;0.00;;;;;;;;6265140;22;49501;-68
2023/04/27 14:19:27;;;;;;;;;0.00;0.00;;;;;;;;6265671;22;49543;-68
2023/04/27 14:21:52;;;;;;;;;0.00;0.00;;;;;;;;6265542;22;49956;-68
2023/04/27 14:24:18;;;;;;;;;0.00;0.00;;;;;;;;6265069;22;51385;-67
2023/04/27 14:26:45;;;;;;;;;0.00;0.00;;;;;;;;6265555;22;49711;-67
2023/04/27 14:29:10;;;;;;;;;0.00;0.00;;;;;;;;6265362;22;49973;-67
2023/04/27 14:31:36;;;;;;;;;0.00;0.00;;;;;;;;6265320;22;49875;-67
2023/04/27 14:34:01;;;;;;;;;0.00;0.00;;;;;;;;6236846;22;52494;-67
2023/04/27 14:36:26;;;;;;;;;0.00;0.00;;;;;;;;6264498;22;49747;-67